Time;durP1;ratioP1;P1;durP2;ratioP2;P2;SDS_P1;SDS_P2;PMS_P1;PMS_P2;Temp;Humidity;BMP_temperature;BMP_pressure;BME280_temperature;BME280_humidity;BME280_pressure;Samples;Min_cycle;Max_cycle;Signal;HPM_P1;HPM_P2
2023/06/26 06:41:24;;;;;;;7.55;5.45;;;;;;;;;;5015580;28;20434;-66
2023/06/26 06:43:50;;;;;;;5.63;4.85;;;;;;;;;;5014033;28;20482;-66
2023/06/26 06:46:15;;;;;;;8.43;5.53;;;;;;;;;;5013483;28;20113;-65
2023/06/26 06:48:40;;;;;;;6.32;4.53;;;;;;;;;;5010837;28;20045;-63
2023/06/26 06:51:06;;;;;;;7.60;5.40;;;;;;;;;;5013641;28;20049;-63
2023/06/26 06:53:31;;;;;;;6.53;5.03;;;;;;;;;;5013568;28;20056;-63
2023/06/26 06:55:57;;;;;;;6.45;4.97;;;;;;;;;;5013743;28;20052;-63
2023/06/26 06:58:22;;;;;;;12.85;4.97;;;;;;;;;;5013862;28;20492;-63
2023/06/26 07:00:48;;;;;;;10.15;5.13;;;;;;;;;;5013701;28;20022;-63
2023/06/26 07:03:14;;;;;;;7.00;4.85;;;;;;;;;;5013873;28;20377;-63
2023/06/26 07:05:43;;;;;;;9.38;5.10;;;;;;;;;;5009307;28;20498;-63
2023/06/26 07:08:09;;;;;;;9.68;5.20;;;;;;;;;;5013552;28;20455;-63
2023/06/26 07:10:34;;;;;;;9.90;5.55;;;;;;;;;;5013157;28;20053;-62
2023/06/26 07:13:00;;;;;;;8.68;5.10;;;;;;;;;;5013312;28;20410;-68
2023/06/26 07:15:25;;;;;;;8.85;5.15;;;;;;;;;;5013545;28;20033;-64
2023/06/26 07:17:51;;;;;;;7.93;5.30;;;;;;;;;;5013285;28;20391;-68
2023/06/26 07:20:16;;;;;;;7.18;5.05;;;;;;;;;;5013456;28;20021;-68
2023/06/26 07:22:44;;;;;;;7.95;5.07;;;;;;;;;;5013197;28;20076;-67
2023/06/26 07:25:10;;;;;;;7.18;5.20;;;;;;;;;;5013084;28;20426;-63
2023/06/26 07:27:36;;;;;;;7.32;4.78;;;;;;;;;;5013063;28;20044;-63
2023/06/26 07:30:02;;;;;;;7.15;5.55;;;;;;;;;;5013384;28;20033;-64
2023/06/26 07:32:28;;;;;;;6.40;5.00;;;;;;;;;;5013044;28;20323;-63
2023/06/26 07:34:53;;;;;;;8.50;5.40;;;;;;;;;;5012965;28;20025;-63
2023/06/26 07:37:19;;;;;;;10.63;5.18;;;;;;;;;;5012981;28;20021;-62
2023/06/26 07:39:44;;;;;;;6.10;4.88;;;;;;;;;;5012671;28;20041;-63
2023/06/26 07:42:10;;;;;;;7.90;4.75;;;;;;;;;;4995025;28;20185;-65
2023/06/26 07:44:35;;;;;;;6.25;4.72;;;;;;;;;;5012905;28;20113;-63
2023/06/26 07:47:00;;;;;;;6.57;4.90;;;;;;;;;;5012732;28;20041;-63
2023/06/26 07:49:26;;;;;;;7.32;5.30;;;;;;;;;;5012764;28;20026;-63
2023/06/26 07:51:51;;;;;;;10.77;5.07;;;;;;;;;;5012591;28;20030;-64
2023/06/26 07:54:17;;;;;;;7.13;4.78;;;;;;;;;;5012377;28;20029;-68
2023/06/26 07:56:58;;;;;;;7.78;4.97;;;;;;;;;;5012779;28;20022;-64
2023/06/26 07:59:25;;;;;;;5.43;4.57;;;;;;;;;;5012550;28;20526;-61
2023/06/26 08:01:52;;;;;;;7.22;4.70;;;;;;;;;;5012491;28;20049;-66
2023/06/26 08:04:20;;;;;;;7.03;4.80;;;;;;;;;;5012544;28;20037;-66
2023/06/26 08:06:47;;;;;;;6.10;4.97;;;;;;;;;;5012074;28;20390;-67
2023/06/26 08:09:13;;;;;;;8.93;4.85;;;;;;;;;;5012198;28;20077;-67
2023/06/26 08:11:38;;;;;;;6.30;4.53;;;;;;;;;;5012341;28;20117;-67
2023/06/26 08:14:04;;;;;;;9.88;4.90;;;;;;;;;;5012338;28;20045;-66
2023/06/26 08:16:29;;;;;;;8.88;5.25;;;;;;;;;;5012472;28;20057;-66
2023/06/26 08:18:55;;;;;;;8.13;5.03;;;;;;;;;;5012410;28;20026;-67
2023/06/26 08:21:20;;;;;;;7.72;5.30;;;;;;;;;;5012524;28;20060;-67
2023/06/26 08:23:46;;;;;;;8.10;5.32;;;;;;;;;;5014239;28;20018;-67
2023/06/26 08:26:11;;;;;;;7.70;5.15;;;;;;;;;;5016536;28;20083;-68
2023/06/26 08:28:36;;;;;;;6.28;4.55;;;;;;;;;;5016515;28;20110;-66
2023/06/26 08:31:02;;;;;;;6.10;4.93;;;;;;;;;;5016489;28;20484;-67
2023/06/26 08:33:27;;;;;;;8.45;4.90;;;;;;;;;;5016424;28;20473;-67
2023/06/26 08:35:53;;;;;;;11.85;4.65;;;;;;;;;;5016331;28;20116;-67
2023/06/26 08:38:21;;;;;;;7.80;5.03;;;;;;;;;;5015989;28;20037;-67
2023/06/26 08:40:46;;;;;;;6.47;4.90;;;;;;;;;;5015709;28;20022;-67
2023/06/26 08:43:11;;;;;;;5.93;4.53;;;;;;;;;;5015894;28;20050;-67
2023/06/26 08:45:37;;;;;;;10.77;4.70;;;;;;;;;;5015864;28;20030;-67
2023/06/26 08:48:05;;;;;;;8.48;4.57;;;;;;;;;;5016089;28;20022;-68
2023/06/26 08:50:34;;;;;;;9.48;4.75;;;;;;;;;;5015979;28;20030;-67
2023/06/26 08:53:11;;;;;;;10.98;4.60;;;;;;;;;;5015753;28;20026;-66
2023/06/26 08:55:40;;;;;;;8.85;4.68;;;;;;;;;;5015837;28;20034;-68
2023/06/26 08:58:06;;;;;;;9.50;4.90;;;;;;;;;;5015742;28;20099;-67
2023/06/26 09:00:32;;;;;;;5.80;4.53;;;;;;;;;;5015832;28;20066;-66
2023/06/26 09:02:59;;;;;;;5.47;4.13;;;;;;;;;;5015724;28;20018;-67
2023/06/26 09:05:27;;;;;;;7.88;4.85;;;;;;;;;;5015626;28;20057;-67
2023/06/26 09:07:55;;;;;;;7.78;4.07;;;;;;;;;;5015370;28;20054;-67
2023/06/26 09:10:21;;;;;;;5.95;4.25;;;;;;;;;;5015613;28;20391;-67
2023/06/26 09:12:47;;;;;;;5.88;4.65;;;;;;;;;;5015441;28;20030;-67
2023/06/26 09:15:14;;;;;;;6.97;4.60;;;;;;;;;;5015536;28;20498;-68
2023/06/26 09:17:41;;;;;;;7.30;4.38;;;;;;;;;;5015503;28;20034;-64
2023/06/26 09:20:07;;;;;;;6.55;4.20;;;;;;;;;;5015641;28;20026;-64
2023/06/26 09:22:36;;;;;;;6.90;4.28;;;;;;;;;;5015065;28;20406;-66
2023/06/26 09:25:03;;;;;;;6.00;3.63;;;;;;;;;;5015399;28;20018;-63
2023/06/26 09:27:30;;;;;;;7.30;4.13;;;;;;;;;;5015282;28;20472;-67
2023/06/26 09:29:57;;;;;;;5.07;4.00;;;;;;;;;;5015378;28;20034;-67
2023/06/26 09:32:24;;;;;;;4.45;4.05;;;;;;;;;;5015265;28;20084;-65
2023/06/26 09:34:52;;;;;;;5.53;4.18;;;;;;;;;;5013921;28;20038;-66
2023/06/26 09:37:18;;;;;;;6.32;3.80;;;;;;;;;;5015230;28;20355;-67
2023/06/26 09:39:44;;;;;;;4.10;3.42;;;;;;;;;;5014707;28;20049;-66
2023/06/26 09:42:09;;;;;;;5.47;3.67;;;;;;;;;;5014937;28;20141;-66
2023/06/26 09:44:35;;;;;;;5.97;4.35;;;;;;;;;;5015054;28;20509;-66
2023/06/26 09:47:02;;;;;;;5.95;4.28;;;;;;;;;;5015146;28;20428;-68
2023/06/26 09:49:28;;;;;;;4.30;3.47;;;;;;;;;;5014972;28;20026;-68
2023/06/26 09:51:53;;;;;;;7.47;3.83;;;;;;;;;;5014617;28;20030;-67
2023/06/26 09:54:21;;;;;;;6.30;3.80;;;;;;;;;;5014817;28;20037;-64
2023/06/26 09:56:47;;;;;;;5.70;3.40;;;;;;;;;;5014791;28;20034;-65
2023/06/26 09:59:12;;;;;;;22.55;4.97;;;;;;;;;;5014775;28;20045;-66
2023/06/26 10:01:44;;;;;;;4.68;3.67;;;;;;;;;;5014670;28;20022;-64
2023/06/26 10:04:10;;;;;;;9.20;4.20;;;;;;;;;;5014834;28;20030;-65
2023/06/26 10:06:42;;;;;;;4.80;3.90;;;;;;;;;;5014366;28;20433;-64
2023/06/26 10:09:08;;;;;;;4.88;3.88;;;;;;;;;;5014871;28;20029;-65
2023/06/26 10:11:58;;;;;;;5.70;4.22;;;;;;;;;;5014580;28;20383;-66
2023/06/26 10:14:27;;;;;;;4.75;4.25;;;;;;;;;;5014555;28;20034;-64
2023/06/26 10:16:58;;;;;;;6.85;4.45;;;;;;;;;;5014360;28;20040;-64
2023/06/26 10:19:26;;;;;;;6.03;3.75;;;;;;;;;;5014251;28;20026;-64
2023/06/26 10:21:55;;;;;;;4.90;4.15;;;;;;;;;;5014023;28;20022;-63
2023/06/26 10:24:22;;;;;;;5.50;4.18;;;;;;;;;;5014285;28;20105;-63
2023/06/26 10:26:51;;;;;;;7.00;4.22;;;;;;;;;;5014044;28;20038;-64
2023/06/26 10:29:19;;;;;;;12.32;4.40;;;;;;;;;;5014269;28;20544;-65
2023/06/26 10:31:49;;;;;;;7.38;4.10;;;;;;;;;;5014144;28;20127;-64
2023/06/26 10:34:15;;;;;;;5.63;4.30;;;;;;;;;;5013908;28;20382;-63
2023/06/26 10:36:41;;;;;;;8.20;4.50;;;;;;;;;;5014113;28;20083;-63
2023/06/26 10:39:06;;;;;;;5.80;4.55;;;;;;;;;;5013825;28;20470;-64
2023/06/26 10:41:44;;;;;;;9.85;4.22;;;;;;;;;;5013485;28;20054;-64
2023/06/26 10:44:10;;;;;;;7.30;4.10;;;;;;;;;;5014016;28;20104;-65
2023/06/26 10:46:56;;;;;;;8.70;4.10;;;;;;;;;;5013144;28;20061;-64
2023/06/26 10:49:27;;;;;;;5.38;3.83;;;;;;;;;;5013680;28;20029;-64
2023/06/26 10:51:54;;;;;;;6.85;4.22;;;;;;;;;;5013574;28;20171;-64
2023/06/26 10:54:20;;;;;;;7.50;3.85;;;;;;;;;;5013582;28;20066;-64
2023/06/26 10:56:46;;;;;;;5.05;4.03;;;;;;;;;;5013716;28;20072;-64
2023/06/26 10:59:23;;;;;;;5.05;4.30;;;;;;;;;;5013761;28;20083;-63
2023/06/26 11:01:57;;;;;;;6.22;4.47;;;;;;;;;;5013522;28;20040;-64
2023/06/26 11:04:45;;;;;;;8.18;4.05;;;;;;;;;;5013412;28;20034;-68
2023/06/26 11:07:24;;;;;;;6.50;3.90;;;;;;;;;;5013400;28;20125;-64
2023/06/26 11:10:00;;;;;;;5.47;4.20;;;;;;;;;;5013428;28;20489;-64
2023/06/26 11:12:42;;;;;;;6.03;4.68;;;;;;;;;;5013448;28;20034;-65
2023/06/26 11:15:15;;;;;;;4.45;3.72;;;;;;;;;;5013439;28;20018;-67
2023/06/26 11:17:42;;;;;;;4.78;4.20;;;;;;;;;;5013094;28;20101;-65
2023/06/26 11:20:12;;;;;;;6.20;4.13;;;;;;;;;;5013213;28;20483;-64
2023/06/26 11:22:39;;;;;;;5.28;4.13;;;;;;;;;;5013165;28;20037;-64
2023/06/26 11:25:06;;;;;;;5.88;4.05;;;;;;;;;;5013221;28;20022;-63
2023/06/26 11:27:37;;;;;;;7.07;4.53;;;;;;;;;;5013142;28;20064;-69
2023/06/26 11:30:04;;;;;;;6.50;4.45;;;;;;;;;;5012848;28;20113;-65
2023/06/26 11:32:29;;;;;;;6.38;4.18;;;;;;;;;;5012975;28;20030;-64
2023/06/26 11:34:55;;;;;;;5.47;4.32;;;;;;;;;;5012904;28;20034;-67
2023/06/26 11:37:21;;;;;;;9.77;5.07;;;;;;;;;;5013116;28;20018;-64
2023/06/26 11:39:47;;;;;;;8.15;4.72;;;;;;;;;;5012729;28;20061;-64
2023/06/26 11:42:12;;;;;;;5.50;4.28;;;;;;;;;;5012659;28;20120;-66
2023/06/26 11:44:44;;;;;;;4.82;3.97;;;;;;;;;;5012930;28;20529;-66
2023/06/26 11:47:15;;;;;;;8.90;4.45;;;;;;;;;;5012611;28;20101;-64
2023/06/26 11:49:45;;;;;;;5.93;4.03;;;;;;;;;;5012971;28;20586;-66
2023/06/26 11:52:11;;;;;;;6.30;4.57;;;;;;;;;;5012796;28;20475;-65
2023/06/26 11:54:37;;;;;;;6.35;4.78;;;;;;;;;;5012543;28;20041;-65
2023/06/26 11:57:03;;;;;;;6.88;4.40;;;;;;;;;;5012527;28;20073;-64
2023/06/26 11:59:41;;;;;;;8.50;4.47;;;;;;;;;;5012412;28;20030;-64
2023/06/26 12:02:10;;;;;;;5.85;4.47;;;;;;;;;;5012456;28;20029;-64
2023/06/26 12:04:37;;;;;;;7.07;4.30;;;;;;;;;;5012536;28;20026;-64
2023/06/26 12:07:05;;;;;;;7.75;4.95;;;;;;;;;;5012722;28;20104;-64
2023/06/26 12:09:33;;;;;;;6.47;4.78;;;;;;;;;;5012774;28;20026;-65
2023/06/26 12:11:59;;;;;;;6.97;4.38;;;;;;;;;;5012416;28;20153;-65
2023/06/26 12:14:28;;;;;;;6.20;4.07;;;;;;;;;;5012602;28;20033;-63
2023/06/26 12:16:53;;;;;;;5.10;4.07;;;;;;;;;;5012241;28;20388;-64
2023/06/26 12:19:24;;;;;;;6.72;4.57;;;;;;;;;;5012632;28;20030;-66
2023/06/26 12:21:52;;;;;;;7.70;4.60;;;;;;;;;;5012316;28;20029;-64
2023/06/26 12:24:21;;;;;;;6.65;4.45;;;;;;;;;;5012424;28;20501;-63
2023/06/26 12:26:56;;;;;;;5.75;4.15;;;;;;;;;;5012084;28;20064;-65
2023/06/26 12:29:31;;;;;;;8.02;4.22;;;;;;;;;;5012668;28;20041;-64
2023/06/26 12:31:56;;;;;;;6.63;4.47;;;;;;;;;;5012272;28;20026;-64
2023/06/26 12:34:32;;;;;;;6.32;4.32;;;;;;;;;;5012285;28;20080;-64
2023/06/26 12:37:03;;;;;;;8.13;4.60;;;;;;;;;;5012213;28;20149;-65
2023/06/26 12:39:29;;;;;;;9.73;4.10;;;;;;;;;;5010893;28;20038;-65
2023/06/26 12:42:01;;;;;;;7.43;4.57;;;;;;;;;;5011761;28;20080;-64
2023/06/26 12:44:30;;;;;;;8.82;4.60;;;;;;;;;;5012019;28;20025;-64
2023/06/26 12:46:59;;;;;;;;;;;;;;;;;;5012337;28;20034;-63
2023/06/26 12:49:35;;;;;;;5.50;4.47;;;;;;;;;;5012094;28;19914;-63
2023/06/26 12:52:01;;;;;;;5.80;4.18;;;;;;;;;;5012151;28;20079;-64
2023/06/26 12:54:27;;;;;;;6.43;4.53;;;;;;;;;;5012091;28;20026;-64
2023/06/26 12:56:53;;;;;;;5.57;4.28;;;;;;;;;;5012172;28;20034;-63
2023/06/26 12:59:19;;;;;;;6.45;4.53;;;;;;;;;;5011859;28;20377;-64
2023/06/26 13:01:45;;;;;;;6.65;4.30;;;;;;;;;;5012006;28;20040;-64
2023/06/26 13:04:10;;;;;;;6.75;4.30;;;;;;;;;;5012082;28;20018;-64
2023/06/26 13:06:36;;;;;;;8.75;4.47;;;;;;;;;;5011856;28;20018;-62
2023/06/26 13:09:05;;;;;;;5.60;4.60;;;;;;;;;;5012492;28;20315;-62
2023/06/26 13:11:31;;;;;;;5.00;4.15;;;;;;;;;;5015653;28;20022;-63
2023/06/26 13:13:57;;;;;;;5.47;4.13;;;;;;;;;;5015261;28;20127;-63
2023/06/26 13:16:22;;;;;;;6.40;4.55;;;;;;;;;;5015622;28;20021;-63
2023/06/26 13:18:48;;;;;;;5.50;4.03;;;;;;;;;;5015475;28;20132;-63
2023/06/26 13:21:14;;;;;;;10.88;4.38;;;;;;;;;;5015498;28;20029;-63
2023/06/26 13:23:40;;;;;;;7.05;4.43;;;;;;;;;;5015353;28;20036;-63
2023/06/26 13:26:07;;;;;;;6.25;4.35;;;;;;;;;;5015571;28;20080;-64
2023/06/26 13:28:32;;;;;;;5.47;4.22;;;;;;;;;;5015217;28;20025;-63
2023/06/26 13:30:58;;;;;;;11.20;4.20;;;;;;;;;;5015190;28;20018;-63
2023/06/26 13:33:26;;;;;;;8.43;4.50;;;;;;;;;;5015288;28;20037;-63
2023/06/26 13:35:53;;;;;;;5.07;4.43;;;;;;;;;;5015345;28;20033;-63
2023/06/26 13:38:24;;;;;;;5.50;4.50;;;;;;;;;;5015283;28;20560;-63
2023/06/26 13:40:51;;;;;;;7.82;4.63;;;;;;;;;;5014641;28;20109;-62
2023/06/26 13:43:17;;;;;;;9.45;4.57;;;;;;;;;;5014916;28;20069;-63
2023/06/26 13:45:42;;;;;;;9.15;4.78;;;;;;;;;;5014944;28;20072;-62
2023/06/26 13:48:08;;;;;;;6.93;4.47;;;;;;;;;;5015065;28;20079;-62
2023/06/26 13:50:33;;;;;;;4.68;4.10;;;;;;;;;;5014855;28;20046;-63
2023/06/26 13:52:58;;;;;;;8.05;4.50;;;;;;;;;;5014684;28;20479;-63
2023/06/26 13:55:24;;;;;;;5.82;4.18;;;;;;;;;;5014933;28;20025;-62
2023/06/26 13:57:49;;;;;;;9.77;4.70;;;;;;;;;;5014706;28;20478;-63
2023/06/26 14:00:19;;;;;;;6.82;4.50;;;;;;;;;;5014848;28;20038;-63
2023/06/26 14:02:45;;;;;;;10.27;4.88;;;;;;;;;;5014508;28;20028;-64
2023/06/26 14:05:11;;;;;;;8.73;4.10;;;;;;;;;;5014745;28;20026;-64
2023/06/26 14:07:37;;;;;;;10.40;4.88;;;;;;;;;;5014633;28;20036;-63
2023/06/26 14:10:03;;;;;;;7.53;4.30;;;;;;;;;;5014486;28;20384;-64
2023/06/26 14:12:29;;;;;;;5.13;4.30;;;;;;;;;;5014323;28;20038;-63
2023/06/26 14:14:54;;;;;;;7.88;4.00;;;;;;;;;;5014410;28;20030;-65
2023/06/26 14:17:19;;;;;;;8.10;4.38;;;;;;;;;;5014275;28;20030;-63
2023/06/26 14:19:46;;;;;;;8.82;3.97;;;;;;;;;;5014326;28;20088;-64
2023/06/26 14:22:11;;;;;;;6.90;4.43;;;;;;;;;;5013660;28;20427;-64
2023/06/26 14:24:37;;;;;;;8.82;4.50;;;;;;;;;;5014373;28;20064;-63
2023/06/26 14:27:03;;;;;;;5.00;4.13;;;;;;;;;;5028851;28;20390;-63
2023/06/26 14:29:29;;;;;;;5.75;4.40;;;;;;;;;;5034121;28;20044;-63
2023/06/26 14:31:55;;;;;;;5.10;4.05;;;;;;;;;;5033801;28;20435;-63
2023/06/26 14:34:20;;;;;;;8.65;4.57;;;;;;;;;;5018807;28;20124;-64
2023/06/26 14:36:46;;;;;;;9.43;4.45;;;;;;;;;;5013457;28;20060;-63
2023/06/26 14:39:11;;;;;;;5.30;4.28;;;;;;;;;;5012727;28;20160;-63
2023/06/26 14:41:37;;;;;;;9.30;4.43;;;;;;;;;;5013483;28;20091;-64
2023/06/26 14:44:02;;;;;;;6.18;4.95;;;;;;;;;;5012858;28;20316;-64
2023/06/26 14:46:28;;;;;;;5.13;4.13;;;;;;;;;;5013494;28;20041;-64
2023/06/26 14:48:55;;;;;;;6.22;4.47;;;;;;;;;;5013839;28;20038;-64
2023/06/26 14:51:21;;;;;;;6.07;4.15;;;;;;;;;;5012540;28;20487;-65
2023/06/26 14:53:47;;;;;;;8.35;4.30;;;;;;;;;;5011638;28;20038;-63
2023/06/26 14:56:12;;;;;;;7.28;4.22;;;;;;;;;;5012063;28;20085;-63
2023/06/26 14:58:38;;;;;;;6.97;4.38;;;;;;;;;;5013008;28;20430;-63
2023/06/26 15:01:03;;;;;;;5.30;4.18;;;;;;;;;;5013277;28;20029;-64
2023/06/26 15:03:29;;;;;;;8.35;4.50;;;;;;;;;;5013277;28;20121;-63
2023/06/26 15:05:54;;;;;;;7.15;4.45;;;;;;;;;;5013148;28;20121;-63
2023/06/26 15:08:20;;;;;;;5.93;4.50;;;;;;;;;;5013457;28;20446;-63
2023/06/26 15:10:45;;;;;;;9.68;4.65;;;;;;;;;;5013096;28;20072;-63
2023/06/26 15:13:11;;;;;;;20.30;4.35;;;;;;;;;;5013206;28;20030;-65
2023/06/26 15:15:36;;;;;;;18.63;3.72;;;;;;;;;;5013357;28;20490;-64
2023/06/26 15:18:01;;;;;;;11.63;4.45;;;;;;;;;;5013336;28;20025;-63
2023/06/26 15:20:27;;;;;;;17.40;4.50;;;;;;;;;;5009542;28;20041;-62
2023/06/26 15:22:53;;;;;;;12.75;4.80;;;;;;;;;;5010727;28;20065;-63
2023/06/26 15:25:18;;;;;;;14.88;5.28;;;;;;;;;;5010153;28;20041;-63
2023/06/26 15:27:43;;;;;;;13.05;6.13;;;;;;;;;;5011557;28;20080;-65
2023/06/26 15:30:09;;;;;;;14.20;5.88;;;;;;;;;;5010462;28;20056;-64
2023/06/26 15:32:35;;;;;;;21.20;6.13;;;;;;;;;;5009094;28;20030;-65
2023/06/26 15:35:01;;;;;;;11.52;5.90;;;;;;;;;;5012071;28;20463;-66
2023/06/26 15:37:26;;;;;;;8.85;5.38;;;;;;;;;;5012477;28;20026;-63
2023/06/26 15:39:52;;;;;;;7.85;5.75;;;;;;;;;;5009080;28;20080;-65
2023/06/26 15:42:17;;;;;;;6.13;5.40;;;;;;;;;;5012018;28;20049;-66
2023/06/26 15:44:42;;;;;;;9.80;5.85;;;;;;;;;;5012152;28;20051;-63
2023/06/26 15:47:08;;;;;;;18.73;6.05;;;;;;;;;;5012174;28;20108;-62
2023/06/26 15:49:34;;;;;;;11.43;5.85;;;;;;;;;;5013931;28;20048;-63
2023/06/26 15:51:59;;;;;;;7.65;5.47;;;;;;;;;;5021360;28;20027;-64
2023/06/26 15:54:25;;;;;;;9.20;6.25;;;;;;;;;;5022812;28;20554;-63
2023/06/26 15:56:51;;;;;;;11.82;5.68;;;;;;;;;;5021667;28;20072;-64
2023/06/26 15:59:18;;;;;;;9.18;5.72;;;;;;;;;;5021767;28;20441;-64
2023/06/26 16:01:45;;;;;;;13.98;5.90;;;;;;;;;;5029033;28;20030;-66
2023/06/26 16:04:12;;;;;;;9.18;5.40;;;;;;;;;;5026287;28;20021;-66
2023/06/26 16:06:37;;;;;;;8.13;5.28;;;;;;;;;;5020676;28;20022;-63
2023/06/26 16:09:03;;;;;;;11.63;5.78;;;;;;;;;;5017306;28;20022;-65
2023/06/26 16:11:28;;;;;;;9.82;4.97;;;;;;;;;;5012484;28;20068;-64
2023/06/26 16:13:54;;;;;;;11.32;5.18;;;;;;;;;;5012261;28;20114;-63
2023/06/26 16:16:20;;;;;;;7.22;4.63;;;;;;;;;;5012545;28;20025;-64
2023/06/26 16:18:46;;;;;;;10.88;5.72;;;;;;;;;;5012426;28;20033;-63
2023/06/26 16:21:11;;;;;;;8.63;4.93;;;;;;;;;;5012280;28;20026;-63
2023/06/26 16:23:37;;;;;;;8.00;5.35;;;;;;;;;;5012435;28;20113;-65
2023/06/26 16:26:02;;;;;;;7.40;5.25;;;;;;;;;;5012446;28;20108;-63
2023/06/26 16:28:29;;;;;;;6.93;4.53;;;;;;;;;;5012335;28;20049;-63
2023/06/26 16:30:55;;;;;;;7.43;5.22;;;;;;;;;;5012030;28;20022;-63
2023/06/26 16:33:20;;;;;;;7.95;5.03;;;;;;;;;;5012277;28;20116;-67
2023/06/26 16:35:46;;;;;;;11.70;5.63;;;;;;;;;;5012252;28;20022;-66
2023/06/26 16:38:11;;;;;;;8.98;5.13;;;;;;;;;;5012089;28;20030;-63
2023/06/26 16:40:37;;;;;;;7.57;5.05;;;;;;;;;;5011999;28;20032;-64
2023/06/26 16:43:02;;;;;;;10.25;5.53;;;;;;;;;;5012028;28;20092;-63
2023/06/26 16:45:28;;;;;;;8.50;5.68;;;;;;;;;;5015184;28;20383;-64
2023/06/26 16:47:53;;;;;;;8.57;5.88;;;;;;;;;;5016013;28;20057;-64
2023/06/26 16:50:20;;;;;;;8.18;5.57;;;;;;;;;;5015895;28;20033;-63
2023/06/26 16:52:45;;;;;;;13.73;6.00;;;;;;;;;;5015760;28;20133;-67
2023/06/26 16:55:11;;;;;;;8.30;5.65;;;;;;;;;;5015852;28;20056;-63
2023/06/26 16:57:36;;;;;;;11.15;5.95;;;;;;;;;;5015971;28;20029;-63
2023/06/26 17:00:03;;;;;;;11.40;6.32;;;;;;;;;;5015731;28;20030;-63
2023/06/26 17:02:30;;;;;;;10.93;5.78;;;;;;;;;;5015821;28;20041;-63
2023/06/26 17:04:56;;;;;;;9.65;5.40;;;;;;;;;;5015422;28;20049;-63
2023/06/26 17:07:22;;;;;;;10.77;6.25;;;;;;;;;;5015373;28;20021;-63
2023/06/26 17:09:47;;;;;;;10.57;6.57;;;;;;;;;;5015269;28;20033;-63
2023/06/26 17:12:13;;;;;;;10.82;6.22;;;;;;;;;;5015555;28;20364;-63
2023/06/26 17:14:38;;;;;;;8.15;6.10;;;;;;;;;;5015436;28;20378;-63
2023/06/26 17:17:04;;;;;;;10.30;7.00;;;;;;;;;;5015510;28;20037;-63
2023/06/26 17:19:31;;;;;;;8.88;6.10;;;;;;;;;;5015454;28;20033;-63
2023/06/26 17:21:57;;;;;;;9.55;6.32;;;;;;;;;;5015012;28;20117;-64
2023/06/26 17:24:24;;;;;;;11.00;6.47;;;;;;;;;;5015423;28;20054;-63
2023/06/26 17:26:50;;;;;;;9.18;6.35;;;;;;;;;;5015165;28;20455;-63
2023/06/26 17:29:15;;;;;;;16.88;7.15;;;;;;;;;;5015295;28;20029;-63
2023/06/26 17:31:41;;;;;;;9.85;6.80;;;;;;;;;;5015166;28;20071;-63
2023/06/26 17:34:06;;;;;;;16.83;7.47;;;;;;;;;;5015179;28;20099;-63
2023/06/26 17:36:32;;;;;;;14.07;7.25;;;;;;;;;;5015132;28;20157;-63
2023/06/26 17:38:57;;;;;;;9.82;7.38;;;;;;;;;;5013767;28;20378;-63
2023/06/26 17:41:22;;;;;;;12.30;6.95;;;;;;;;;;5014504;28;20054;-64
2023/06/26 17:43:48;;;;;;;12.75;6.80;;;;;;;;;;5014944;28;20544;-64
2023/06/26 17:46:13;;;;;;;11.38;6.47;;;;;;;;;;5014992;28;20022;-64
2023/06/26 17:48:39;;;;;;;11.57;6.20;;;;;;;;;;5014802;28;20453;-63
2023/06/26 17:51:04;;;;;;;15.65;6.85;;;;;;;;;;5014951;28;20025;-64
2023/06/26 17:53:30;;;;;;;10.32;6.35;;;;;;;;;;5014696;28;20426;-63
2023/06/26 17:55:55;;;;;;;12.82;6.80;;;;;;;;;;5013772;28;20041;-63
2023/06/26 17:58:21;;;;;;;10.68;6.82;;;;;;;;;;5014834;28;20486;-63
2023/06/26 18:00:46;;;;;;;13.27;6.97;;;;;;;;;;5014515;28;20026;-63
2023/06/26 18:03:12;;;;;;;12.02;7.13;;;;;;;;;;5014406;28;20017;-63
2023/06/26 18:05:37;;;;;;;10.95;7.03;;;;;;;;;;5014531;28;20368;-63
2023/06/26 18:08:03;;;;;;;10.18;6.95;;;;;;;;;;5014521;28;20025;-63
2023/06/26 18:10:28;;;;;;;11.68;7.07;;;;;;;;;;5014418;28;20022;-63
2023/06/26 18:12:56;;;;;;;14.20;7.70;;;;;;;;;;5014242;28;20041;-63
2023/06/26 18:15:22;;;;;;;13.27;7.78;;;;;;;;;;5014426;28;20034;-63
2023/06/26 18:17:47;;;;;;;11.20;7.13;;;;;;;;;;5013745;28;20097;-65
2023/06/26 18:20:13;;;;;;;11.52;7.38;;;;;;;;;;5014225;28;20050;-65
2023/06/26 18:22:38;;;;;;;12.73;7.38;;;;;;;;;;5013362;28;20085;-65
2023/06/26 18:25:04;;;;;;;10.35;7.57;;;;;;;;;;5013386;28;20065;-63
2023/06/26 18:27:35;;;;;;;14.05;7.97;;;;;;;;;;5013329;28;20463;-64
2023/06/26 18:30:01;;;;;;;12.80;7.75;;;;;;;;;;5013202;28;20030;-63
2023/06/26 18:32:27;;;;;;;10.43;7.55;;;;;;;;;;5012783;28;20029;-64
2023/06/26 18:34:53;;;;;;;9.73;7.30;;;;;;;;;;5013023;28;20120;-63
2023/06/26 18:37:18;;;;;;;10.93;7.75;;;;;;;;;;5013104;28;20482;-64
2023/06/26 18:39:44;;;;;;;9.88;7.15;;;;;;;;;;5009011;28;20143;-63
2023/06/26 18:42:10;;;;;;;10.55;7.30;;;;;;;;;;5012816;28;20120;-63
2023/06/26 18:44:35;;;;;;;12.70;7.60;;;;;;;;;;5012941;28;20320;-63
2023/06/26 18:47:01;;;;;;;11.88;7.65;;;;;;;;;;4995208;28;20069;-63
2023/06/26 18:49:27;;;;;;;13.15;8.13;;;;;;;;;;5013011;28;20096;-63
2023/06/26 18:51:53;;;;;;;11.07;7.50;;;;;;;;;;5012673;28;20026;-63
2023/06/26 18:54:19;;;;;;;12.85;8.18;;;;;;;;;;5012746;28;20431;-66
2023/06/26 18:56:44;;;;;;;13.90;7.75;;;;;;;;;;5012738;28;20026;-67
2023/06/26 18:59:09;;;;;;;14.82;7.30;;;;;;;;;;5012763;28;20022;-63
2023/06/26 19:01:35;;;;;;;12.80;7.22;;;;;;;;;;5012396;28;20399;-64
2023/06/26 19:04:00;;;;;;;12.02;7.60;;;;;;;;;;5012629;28;20036;-64
2023/06/26 19:06:26;;;;;;;12.60;8.05;;;;;;;;;;5012543;28;20080;-63
2023/06/26 19:08:51;;;;;;;12.60;7.55;;;;;;;;;;5012442;28;20476;-63
2023/06/26 19:11:17;;;;;;;12.45;7.75;;;;;;;;;;5012577;28;20030;-64
2023/06/26 19:13:45;;;;;;;11.77;7.90;;;;;;;;;;5012263;28;20033;-64
2023/06/26 19:16:13;;;;;;;13.15;7.30;;;;;;;;;;5012146;28;20097;-64
2023/06/26 19:18:39;;;;;;;13.23;6.32;;;;;;;;;;5011859;28;20025;-64
2023/06/26 19:21:04;;;;;;;11.32;6.07;;;;;;;;;;5008425;28;20026;-64
2023/06/26 19:23:30;;;;;;;11.57;6.45;;;;;;;;;;4992724;28;20022;-63
2023/06/26 19:25:57;;;;;;;10.05;6.85;;;;;;;;;;4998054;28;20026;-64
2023/06/26 19:28:22;;;;;;;8.93;5.55;;;;;;;;;;5012156;28;20056;-64
2023/06/26 19:30:48;;;;;;;9.88;5.75;;;;;;;;;;5012049;28;20127;-64
2023/06/26 19:33:13;;;;;;;10.40;5.50;;;;;;;;;;5012009;28;20447;-63
2023/06/26 19:35:39;;;;;;;11.63;5.75;;;;;;;;;;5012114;28;20554;-64
2023/06/26 19:38:06;;;;;;;13.43;5.13;;;;;;;;;;5012011;28;20424;-65
2023/06/26 19:40:33;;;;;;;11.68;4.63;;;;;;;;;;5008183;28;20096;-64
2023/06/26 19:42:59;;;;;;;7.18;4.63;;;;;;;;;;5011740;28;20510;-63
2023/06/26 19:45:25;;;;;;;10.98;4.53;;;;;;;;;;5011545;28;20092;-64
2023/06/26 19:47:51;;;;;;;12.90;4.85;;;;;;;;;;5011881;28;20030;-64
2023/06/26 19:50:17;;;;;;;9.13;5.20;;;;;;;;;;5011848;28;20080;-63
2023/06/26 19:52:43;;;;;;;10.75;4.43;;;;;;;;;;5011796;28;20367;-63
2023/06/26 19:55:09;;;;;;;11.75;4.45;;;;;;;;;;5011638;28;20076;-63
2023/06/26 19:57:34;;;;;;;12.07;5.30;;;;;;;;;;5011690;28;20509;-64
2023/06/26 20:00:00;;;;;;;11.82;4.70;;;;;;;;;;5011497;28;20026;-63
2023/06/26 20:02:25;;;;;;;11.65;5.38;;;;;;;;;;5011695;28;20380;-63
2023/06/26 20:04:50;;;;;;;8.35;4.88;;;;;;;;;;5011604;28;20034;-63
2023/06/26 20:07:17;;;;;;;11.13;4.75;;;;;;;;;;5011602;28;20379;-64
2023/06/26 20:09:42;;;;;;;10.50;4.53;;;;;;;;;;5011591;28;20095;-63
2023/06/26 20:12:08;;;;;;;10.95;4.38;;;;;;;;;;5011651;28;20540;-63
2023/06/26 20:14:33;;;;;;;8.00;4.00;;;;;;;;;;5011181;28;20038;-63
2023/06/26 20:16:59;;;;;;;10.25;4.22;;;;;;;;;;5003750;28;20034;-64
2023/06/26 20:19:26;;;;;;;7.28;3.60;;;;;;;;;;4991215;28;20037;-63
2023/06/26 20:21:52;;;;;;;6.25;3.33;;;;;;;;;;4991186;28;20107;-63
2023/06/26 20:24:17;;;;;;;9.07;3.78;;;;;;;;;;4991891;28;20581;-63
2023/06/26 20:26:43;;;;;;;10.30;3.80;;;;;;;;;;5003705;28;20018;-64
2023/06/26 20:29:09;;;;;;;8.18;3.60;;;;;;;;;;5011162;28;20562;-63
2023/06/26 20:31:34;;;;;;;11.77;3.45;;;;;;;;;;5011348;28;20041;-63
2023/06/26 20:34:00;;;;;;;8.57;3.83;;;;;;;;;;5011327;28;20041;-63
2023/06/26 20:36:25;;;;;;;6.90;3.60;;;;;;;;;;5011460;28;20094;-63
2023/06/26 20:38:51;;;;;;;10.15;3.38;;;;;;;;;;5011099;28;20022;-63
2023/06/26 20:41:16;;;;;;;14.18;3.83;;;;;;;;;;5007068;28;20495;-63
2023/06/26 20:43:42;;;;;;;8.13;3.40;;;;;;;;;;5011092;28;20030;-63
2023/06/26 20:46:08;;;;;;;10.95;3.47;;;;;;;;;;5011246;28;20045;-63
2023/06/26 20:48:34;;;;;;;7.65;3.08;;;;;;;;;;5011237;28;20033;-63
2023/06/26 20:51:00;;;;;;;10.77;3.08;;;;;;;;;;4993348;28;20344;-63
2023/06/26 20:53:26;;;;;;;7.68;2.72;;;;;;;;;;5011181;28;20272;-64
2023/06/26 20:55:52;;;;;;;5.85;2.70;;;;;;;;;;5011162;28;20026;-63
2023/06/26 20:58:17;;;;;;;5.90;2.75;;;;;;;;;;5010989;28;20076;-63
2023/06/26 21:00:43;;;;;;;9.25;2.97;;;;;;;;;;5011014;28;20383;-63
2023/06/26 21:03:08;;;;;;;6.18;2.58;;;;;;;;;;5011169;28;20026;-64
2023/06/26 21:05:34;;;;;;;9.23;2.60;;;;;;;;;;5011113;28;20033;-63
2023/06/26 21:08:00;;;;;;;12.02;3.00;;;;;;;;;;5010880;28;20033;-64
2023/06/26 21:10:25;;;;;;;11.70;3.00;;;;;;;;;;5011090;28;20030;-63
2023/06/26 21:12:52;;;;;;;11.05;2.83;;;;;;;;;;5010649;28;20030;-63
2023/06/26 21:15:17;;;;;;;9.32;3.15;;;;;;;;;;5010938;28;20391;-64